createdAt,value
2022-10-31T00:01:40.687Z,55.28711
2022-10-31T00:03:40.725Z,55.36719
2022-10-31T00:05:40.718Z,55.07617
2022-10-31T00:08:34.526Z,55.40723
2022-10-31T00:10:34.002Z,55.1377
2022-10-31T00:12:34.132Z,55.47363
2022-10-31T00:14:34.296Z,55.43555
2022-10-31T00:16:33.988Z,55.33496
2022-10-31T00:18:34.336Z,55.61816
2022-10-31T00:20:34.393Z,55.30957
2022-10-31T00:22:34.169Z,55.09473
2022-10-31T00:24:13.714Z,55.51074
2022-10-31T00:26:13.573Z,55.33398
2022-10-31T00:28:13.610Z,55.77832
2022-10-31T00:30:13.471Z,56.01172
2022-10-31T00:32:13.453Z,55.7793
2022-10-31T00:34:13.436Z,55.9375
2022-10-31T00:36:13.461Z,55.45898
2022-10-31T00:39:20.997Z,56.27441
2022-10-31T00:41:20.890Z,55.69922
2022-10-31T00:43:20.862Z,56.49414
2022-10-31T00:45:20.913Z,56.74414
2022-10-31T00:47:20.861Z,56.34961
2022-10-31T00:49:20.860Z,56.44922
2022-10-31T00:51:20.877Z,56.38672
2022-10-31T00:54:58.403Z,56.10645
2022-10-31T00:56:58.365Z,56.15918
2022-10-31T00:58:58.337Z,56.18262
2022-10-31T01:00:58.490Z,55.72949
2022-10-31T01:02:59.162Z,56.15039
2022-10-31T01:04:58.319Z,57.31934
2022-10-31T01:06:58.324Z,57.91699
2022-10-31T01:09:55.110Z,56.97559
2022-10-31T01:11:55.111Z,56.87891
2022-10-31T01:13:55.067Z,56.94727
2022-10-31T01:15:55.062Z,57.54199
2022-10-31T01:17:55.054Z,56.99707
2022-10-31T01:19:55.070Z,56.79492
2022-10-31T01:21:55.062Z,56.79004
2022-10-31T01:25:02.790Z,56.86426
2022-10-31T01:27:02.839Z,57.19922
2022-10-31T01:29:02.830Z,57.16406
2022-10-31T01:31:02.803Z,57.23145
2022-10-31T01:33:03.174Z,57.88281
2022-10-31T01:35:02.845Z,57.56934
2022-10-31T01:37:02.789Z,57.69043
2022-10-31T01:40:18.054Z,57.80664
2022-10-31T01:42:18.090Z,57.67188
2022-10-31T01:44:18.075Z,57.7627
2022-10-31T01:46:18.012Z,57.73242
2022-10-31T01:48:18.054Z,57.96191
2022-10-31T01:50:18.021Z,57.9707
2022-10-31T01:52:18.067Z,58.61523
2022-10-31T01:55:30.202Z,58.94336
2022-10-31T01:57:23.238Z,59.42773
2022-10-31T01:59:23.222Z,58.97461
2022-10-31T02:01:23.521Z,59.08496
2022-10-31T02:03:23.224Z,60.06641
2022-10-31T02:05:23.167Z,59.70703
2022-10-31T02:07:23.213Z,59.65039
2022-10-31T02:10:25.266Z,59.23633
2022-10-31T02:12:25.271Z,58.77246
2022-10-31T02:14:25.292Z,58.31836
2022-10-31T02:16:25.266Z,58.2168
2022-10-31T02:18:25.252Z,58.625
2022-10-31T02:20:25.262Z,58.46777
2022-10-31T02:22:25.250Z,58.23145
2022-10-31T02:25:26.783Z,58.18164
2022-10-31T02:27:26.807Z,57.43457
2022-10-31T02:29:26.752Z,57.82129
2022-10-31T02:31:26.799Z,58.0498
2022-10-31T02:33:26.824Z,58.55664
2022-10-31T02:35:26.732Z,58.82813
2022-10-31T02:37:26.751Z,60.33887
2022-10-31T02:40:29.584Z,59.34277
2022-10-31T02:42:29.580Z,58.86621
2022-10-31T02:44:29.542Z,58.97559
2022-10-31T02:46:29.580Z,59.37891
2022-10-31T02:48:29.582Z,60.5752
2022-10-31T02:50:29.549Z,60.00781
2022-10-31T02:52:29.541Z,59.27148
2022-10-31T02:55:53.174Z,59.08301
2022-10-31T02:57:53.140Z,59.27344
2022-10-31T02:59:53.151Z,59.3291
2022-10-31T03:01:53.565Z,59.68652
2022-10-31T03:03:53.088Z,60.01367
2022-10-31T03:05:53.142Z,61.12012
2022-10-31T03:07:53.160Z,60.39355
2022-10-31T03:11:04.021Z,59.69043
2022-10-31T03:13:04.791Z,60.08008
2022-10-31T03:15:03.819Z,61.04688
2022-10-31T03:17:03.918Z,60.45703
2022-10-31T03:19:03.828Z,60.16309
2022-10-31T03:21:03.869Z,59.99219
2022-10-31T03:23:03.821Z,59.79395
2022-10-31T03:26:09.112Z,59.88086
2022-10-31T03:28:09.290Z,59.83203
2022-10-31T03:30:09.285Z,59.45703
2022-10-31T03:32:09.147Z,59.50977
2022-10-31T03:34:09.134Z,59.66699
2022-10-31T03:36:09.100Z,59.55176
2022-10-31T03:38:09.079Z,59.75684
2022-10-31T03:41:01.658Z,60.16211
2022-10-31T03:43:02.457Z,60.23145
2022-10-31T03:45:01.614Z,60.41699
2022-10-31T03:47:01.584Z,61.02832
2022-10-31T03:49:01.660Z,61.02441
2022-10-31T03:51:01.619Z,61.23145
2022-10-31T03:53:01.617Z,61.01465
2022-10-31T03:55:01.664Z,61.30859
2022-10-31T03:56:23.764Z,61.41699
2022-10-31T03:58:23.749Z,62.20508
2022-10-31T04:00:23.771Z,62.38086
2022-10-31T04:02:24.151Z,62.39746
2022-10-31T04:04:23.819Z,62.02148
2022-10-31T04:06:23.758Z,61.67188
2022-10-31T04:08:23.780Z,61.61816
2022-10-31T04:11:45.169Z,61.50391
2022-10-31T04:13:45.204Z,61.63086
2022-10-31T04:15:45.147Z,61.45605
2022-10-31T04:17:45.163Z,61.41406
2022-10-31T04:19:45.249Z,60.92676
2022-10-31T04:21:45.153Z,60.45996
2022-10-31T04:23:45.194Z,60.81152
2022-10-31T04:26:50.079Z,60.54004
2022-10-31T04:28:50.141Z,60.77539
2022-10-31T04:30:50.073Z,60.41699
2022-10-31T04:32:50.065Z,60.19434
2022-10-31T04:34:50.168Z,60.73926
2022-10-31T04:36:50.088Z,60.3252
2022-10-31T04:38:50.109Z,60.24707
2022-10-31T04:41:33.880Z,60.52832
2022-10-31T04:43:33.870Z,60.40234
2022-10-31T04:45:33.855Z,60.80469
2022-10-31T04:47:33.870Z,60.84473
2022-10-31T04:49:33.851Z,60.98242
2022-10-31T04:51:33.878Z,61.65723
2022-10-31T04:53:33.842Z,61.24219
2022-10-31T04:55:33.878Z,61.21777
2022-10-31T04:56:46.379Z,61.95215
2022-10-31T04:58:46.373Z,62.04395
2022-10-31T05:00:46.543Z,61.27539
2022-10-31T05:02:46.380Z,61.71289
2022-10-31T05:04:46.413Z,62.4873
2022-10-31T05:06:46.424Z,62.08887
2022-10-31T05:08:46.403Z,61.62891
2022-10-31T05:10:46.378Z,61.16699
2022-10-31T05:12:25.088Z,60.6416
2022-10-31T05:14:25.170Z,60.11426
2022-10-31T05:16:25.137Z,60.01465
2022-10-31T05:18:25.251Z,60.32031
2022-10-31T05:20:25.254Z,60.53711
2022-10-31T05:22:25.314Z,60.11133
2022-10-31T05:24:25.609Z,59.72266
2022-10-31T05:27:32.225Z,59.95605
2022-10-31T05:29:32.179Z,59.79199
2022-10-31T05:31:32.203Z,59.61816
2022-10-31T05:33:32.168Z,59.45605
2022-10-31T05:35:32.221Z,59.11719
2022-10-31T05:37:32.288Z,59.45508
2022-10-31T05:39:32.170Z,60.40723
2022-10-31T05:42:39.023Z,59.74219
2022-10-31T05:44:39.003Z,59.50586
2022-10-31T05:46:38.949Z,59.46582
2022-10-31T05:48:38.941Z,59.21973
2022-10-31T05:50:39.018Z,59.52539
2022-10-31T05:52:39.174Z,59.50684
2022-10-31T05:54:39.312Z,59.74121
2022-10-31T05:57:31.140Z,60.09961
2022-10-31T05:59:31.152Z,60.71777
2022-10-31T06:01:31.338Z,60.6875
2022-10-31T06:03:31.188Z,61.05762
2022-10-31T06:05:31.169Z,61.36328
2022-10-31T06:07:31.174Z,60.99023
2022-10-31T06:09:31.209Z,61.0625
2022-10-31T06:11:31.194Z,60.05859
2022-10-31T06:12:56.838Z,60.16016
2022-10-31T06:14:56.588Z,60.27441
2022-10-31T06:16:56.806Z,59.26953
2022-10-31T06:18:56.678Z,59.65234
2022-10-31T06:20:56.566Z,60.98633
2022-10-31T06:22:56.782Z,59.68262
2022-10-31T06:24:56.546Z,59.74316
2022-10-31T06:27:49.725Z,59.58203
2022-10-31T06:29:49.698Z,58.86719
2022-10-31T06:31:49.883Z,58.83203
2022-10-31T06:33:49.690Z,59.18164
2022-10-31T06:35:49.730Z,58.57813
2022-10-31T06:37:50.819Z,58.25977
2022-10-31T06:39:49.572Z,58.21289
2022-10-31T06:41:49.585Z,58.1084
2022-10-31T06:43:10.032Z,58.1875
2022-10-31T06:45:09.931Z,57.83594
2022-10-31T06:47:09.944Z,57.58008
2022-10-31T06:49:09.995Z,58.05176
2022-10-31T06:51:09.946Z,57.24902
2022-10-31T06:55:09.954Z,56.85547
2022-10-31T06:58:54.016Z,56.74805
2022-10-31T07:00:54.091Z,56
2022-10-31T07:02:53.913Z,55.50195
2022-10-31T07:04:53.923Z,55.39844
2022-10-31T07:06:53.918Z,55.90918
2022-10-31T07:08:53.898Z,54.62109
2022-10-31T07:10:53.921Z,54.64551
2022-10-31T07:13:20.625Z,54.98828
2022-10-31T07:15:20.658Z,53.87305
2022-10-31T07:17:20.633Z,53.83691
2022-10-31T07:19:20.611Z,53.21094
2022-10-31T07:21:20.609Z,52.16797
2022-10-31T07:23:20.627Z,51.64258
2022-10-31T07:25:20.594Z,52.09668
2022-10-31T07:27:20.672Z,51.12695
2022-10-31T07:28:53.643Z,51.19238
2022-10-31T07:30:53.672Z,50.5498
2022-10-31T07:32:53.656Z,50.32715
2022-10-31T07:34:53.623Z,49.80469
2022-10-31T07:36:53.682Z,49.58789
2022-10-31T07:38:53.609Z,49.18066
2022-10-31T07:40:53.622Z,49.23145
2022-10-31T07:43:34.714Z,48.69824
2022-10-31T07:45:34.582Z,47.70313
2022-10-31T07:47:34.675Z,47.5332
2022-10-31T07:49:34.635Z,47.18652
2022-10-31T07:51:34.600Z,46.37695
2022-10-31T07:53:34.595Z,46.98047
2022-10-31T07:55:34.629Z,46.72559
2022-10-31T07:57:35.140Z,46.59863
2022-10-31T07:59:09.315Z,46.1377
2022-10-31T08:01:09.666Z,46.17773
2022-10-31T08:03:09.368Z,45.50586
2022-10-31T08:05:09.269Z,45.37012
2022-10-31T08:07:09.215Z,45.28418
2022-10-31T08:09:09.248Z,44.99121
2022-10-31T08:11:09.284Z,45.25391
2022-10-31T08:14:22.297Z,44.69238
2022-10-31T08:16:22.515Z,43.50684
2022-10-31T08:18:22.455Z,43.70996
2022-10-31T08:20:23.524Z,43.92383
2022-10-31T08:22:22.375Z,43.80469
2022-10-31T08:24:22.281Z,43.43945
2022-10-31T08:26:22.311Z,42.55469
2022-10-31T08:29:41.725Z,42.56934
2022-10-31T08:31:43.262Z,42.96973
2022-10-31T08:33:41.747Z,42.20605
2022-10-31T08:35:41.724Z,41.90039
2022-10-31T08:37:41.749Z,41.71191
2022-10-31T08:39:41.692Z,41.82617
2022-10-31T08:41:41.706Z,41.46191
2022-10-31T08:45:12.077Z,41.04785
2022-10-31T08:47:12.119Z,40.96484
2022-10-31T08:49:12.132Z,40.9043
2022-10-31T08:51:12.073Z,40.56934
2022-10-31T08:53:12.112Z,40.43652
2022-10-31T08:55:12.083Z,40.16113
2022-10-31T08:57:12.065Z,39.30762
2022-10-31T08:59:59.069Z,40.68359
2022-10-31T09:01:59.416Z,39.83984
2022-10-31T09:03:59.090Z,39.74023
2022-10-31T09:05:59.389Z,39.44434
2022-10-31T09:08:00.323Z,39.66406
2022-10-31T09:09:59.044Z,39.76172
2022-10-31T09:11:59.056Z,39.3125
2022-10-31T09:15:09.293Z,39.08789
2022-10-31T09:17:09.337Z,38.78223
2022-10-31T09:19:11.789Z,39.06738
2022-10-31T09:21:09.352Z,38.4707
2022-10-31T09:23:09.351Z,39.04102
2022-10-31T09:25:09.318Z,38.02832
2022-10-31T09:27:09.354Z,37.63574
2022-10-31T09:29:57.425Z,37.3877
2022-10-31T09:31:57.419Z,37.19922
2022-10-31T09:33:57.632Z,37.7959
2022-10-31T09:35:57.564Z,37.51465
2022-10-31T09:37:58.131Z,38.22363
2022-10-31T09:39:57.422Z,37.44629
2022-10-31T09:41:57.766Z,37.1123
2022-10-31T09:45:02.828Z,36.84961
2022-10-31T09:47:02.779Z,36.23633
2022-10-31T09:49:02.725Z,36.86621
2022-10-31T09:51:02.728Z,35.9834
2022-10-31T09:53:03.571Z,35.67188
2022-10-31T09:55:02.706Z,36.16113
2022-10-31T09:57:02.727Z,36.60645
2022-10-31T10:00:17.860Z,36.25
2022-10-31T10:02:18.086Z,36.4375
2022-10-31T10:04:21.182Z,35.64063
2022-10-31T10:06:17.888Z,35.97266
2022-10-31T10:08:17.926Z,35.66406
2022-10-31T10:10:17.887Z,35.5
2022-10-31T10:12:17.889Z,35.7373
2022-10-31T10:15:36.545Z,35.5127
2022-10-31T10:17:36.521Z,34.95215
2022-10-31T10:19:36.525Z,34.38965
2022-10-31T10:21:36.580Z,34.73926
2022-10-31T10:23:36.569Z,35.37012
2022-10-31T10:25:36.563Z,35.45215
2022-10-31T10:27:36.518Z,34.57422
2022-10-31T10:30:35.672Z,35.2168
2022-10-31T10:32:35.775Z,34.63672
2022-10-31T10:34:35.659Z,35.00586
2022-10-31T10:36:35.647Z,35.24219
2022-10-31T10:38:35.659Z,34.5166
2022-10-31T10:40:35.727Z,34.50293
2022-10-31T10:42:35.682Z,34.97168
2022-10-31T10:45:52.747Z,35.78027
2022-10-31T10:47:52.960Z,35.00488
2022-10-31T10:49:52.806Z,35.26758
2022-10-31T10:52:19.194Z,34.81348
2022-10-31T10:53:52.726Z,33.95117
2022-10-31T10:55:52.762Z,33.89844
2022-10-31T10:57:52.736Z,34.35449
2022-10-31T11:01:30.949Z,34.02539
2022-10-31T11:03:30.920Z,33.86426
2022-10-31T11:05:30.933Z,33.88086
2022-10-31T11:07:30.898Z,34.18066
2022-10-31T11:09:30.922Z,34.30664
2022-10-31T11:11:30.996Z,34.03418
2022-10-31T11:13:30.973Z,34.45898
2022-10-31T11:16:41.610Z,34.52148
2022-10-31T11:18:36.231Z,34.39355
2022-10-31T11:20:36.196Z,33.96777
2022-10-31T11:22:36.206Z,34.21777
2022-10-31T11:24:36.207Z,34.13379
2022-10-31T11:26:36.268Z,33.74121
2022-10-31T11:28:36.408Z,34.16406
2022-10-31T11:31:54.076Z,34.61328
2022-10-31T11:33:54.141Z,35.11816
2022-10-31T11:35:58.516Z,35.54785
2022-10-31T11:37:54.040Z,35.51758
2022-10-31T11:39:54.107Z,34.66504
2022-10-31T11:41:54.245Z,34.23535
2022-10-31T11:43:54.228Z,34.19141
2022-10-31T11:46:53.733Z,33.80762
2022-10-31T11:48:53.818Z,33.32422
2022-10-31T11:50:53.956Z,33.67285
2022-10-31T11:54:53.749Z,33.91211
2022-10-31T11:56:53.761Z,33.54004
2022-10-31T11:58:53.785Z,34.02441
2022-10-31T12:01:28.556Z,33.70117
2022-10-31T12:03:28.549Z,33.22266
2022-10-31T12:05:28.589Z,33.19727
2022-10-31T12:07:28.377Z,32.90527
2022-10-31T12:09:28.324Z,33.15723
2022-10-31T12:11:28.344Z,32.24219
2022-10-31T12:13:28.299Z,32.69043
2022-10-31T12:15:28.378Z,32.33496
2022-10-31T12:16:57.311Z,33.25684
2022-10-31T12:18:57.281Z,32.50781
2022-10-31T12:20:57.294Z,33.19141
2022-10-31T12:22:57.500Z,33.07324
2022-10-31T12:24:57.353Z,33.04492
2022-10-31T12:26:57.254Z,32.45117
2022-10-31T12:28:57.453Z,32.33691
2022-10-31T12:31:43.188Z,32.23047
2022-10-31T12:33:43.233Z,32.93945
2022-10-31T12:35:43.132Z,33.58984
2022-10-31T12:37:43.358Z,32.89941
2022-10-31T12:39:43.206Z,33.07324
2022-10-31T12:41:43.160Z,32.84473
2022-10-31T12:43:43.166Z,33.55371
2022-10-31T12:45:43.178Z,33
2022-10-31T12:47:31.469Z,33.46484
2022-10-31T12:49:31.440Z,33.2666
2022-10-31T12:51:31.403Z,33.01563
2022-10-31T12:53:31.369Z,33.20703
2022-10-31T12:55:31.408Z,32.84277
2022-10-31T12:57:31.373Z,32.96582
2022-10-31T12:59:31.381Z,32.99121
2022-10-31T13:02:49.414Z,33.05762
2022-10-31T13:04:49.407Z,32.69824
2022-10-31T13:06:49.581Z,32.58203
2022-10-31T13:08:49.509Z,32.69141
2022-10-31T13:10:49.598Z,33.13965
2022-10-31T13:12:49.612Z,32.96875
2022-10-31T13:14:49.531Z,33.15039
2022-10-31T13:18:03.752Z,33.02734
2022-10-31T13:20:03.670Z,32.58203
2022-10-31T13:22:03.668Z,32.71875
2022-10-31T13:24:03.594Z,32.82813
2022-10-31T13:26:03.638Z,32.40137
2022-10-31T13:28:03.581Z,32.94238
2022-10-31T13:30:03.688Z,33.33398
2022-10-31T13:33:03.932Z,33.77832
2022-10-31T13:35:02.658Z,33.80957
2022-10-31T13:37:02.599Z,33.34863
2022-10-31T13:39:03.624Z,33.09375
2022-10-31T13:41:02.583Z,33.65137
2022-10-31T13:43:03.563Z,33.51074
2022-10-31T13:45:03.647Z,34.31543
2022-10-31T13:47:51.579Z,33.70996
2022-10-31T13:49:51.529Z,33.58887
2022-10-31T13:51:51.666Z,33.62598
2022-10-31T13:53:51.531Z,33.65918
2022-10-31T13:55:51.563Z,33.6748
2022-10-31T13:57:51.550Z,33.4502
2022-10-31T13:59:51.596Z,34.34473
2022-10-31T14:02:56.074Z,34.81055
2022-10-31T14:04:55.829Z,34.69238
2022-10-31T14:06:56.001Z,34.64551
2022-10-31T14:08:55.868Z,34.42676
2022-10-31T14:10:56.008Z,34.44238
2022-10-31T14:12:55.790Z,34.75684
2022-10-31T14:14:55.842Z,34.98828
2022-10-31T14:18:27.059Z,34.86621
2022-10-31T14:20:27.022Z,34.60352
2022-10-31T14:22:27.143Z,34.62891
2022-10-31T14:24:27.088Z,34.64258
2022-10-31T14:26:27.012Z,34.93848
2022-10-31T14:28:27.109Z,34.88086
2022-10-31T14:30:27.080Z,35.20801
2022-10-31T14:33:29.390Z,35.15918
2022-10-31T14:35:29.417Z,35.17676
2022-10-31T14:37:29.448Z,35.33203
2022-10-31T14:39:29.490Z,35.42383
2022-10-31T14:41:33.512Z,35.57422
2022-10-31T14:43:29.627Z,35.87891
2022-10-31T14:45:29.788Z,36.12012
2022-10-31T14:48:52.644Z,36.44824
2022-10-31T14:50:52.645Z,36.65625
2022-10-31T14:52:52.730Z,37.00391
2022-10-31T14:54:52.686Z,37.14844
2022-10-31T14:56:52.711Z,37.17285
2022-10-31T14:58:52.626Z,37.5127
2022-10-31T15:00:52.875Z,37.67969
2022-10-31T15:03:19.958Z,38.05176
2022-10-31T15:05:20.122Z,38.14746
2022-10-31T15:07:25.371Z,38.26855
2022-10-31T15:09:20.315Z,38.5293
2022-10-31T15:11:20.039Z,38.91699
2022-10-31T15:13:20.100Z,38.87988
2022-10-31T15:15:19.981Z,39.26758
2022-10-31T15:17:19.968Z,39.66797
2022-10-31T15:19:12.884Z,39.77637
2022-10-31T15:21:12.908Z,39.86133
2022-10-31T15:23:12.864Z,39.89453
2022-10-31T15:25:12.992Z,40.19531
2022-10-31T15:27:12.843Z,40.33887
2022-10-31T15:29:12.852Z,40.51563
2022-10-31T15:31:12.872Z,40.74512
2022-10-31T15:33:55.883Z,41.06738
2022-10-31T15:35:55.934Z,41.04199
2022-10-31T15:37:55.926Z,41.32422
2022-10-31T15:39:55.979Z,41.40039
2022-10-31T15:41:55.939Z,41.46289
2022-10-31T15:43:55.894Z,41.60449
2022-10-31T15:45:55.880Z,42.05859
2022-10-31T15:49:26.160Z,41.87988
2022-10-31T15:51:26.089Z,42.06738
2022-10-31T15:53:26.144Z,42.24316
2022-10-31T15:55:26.100Z,42.26855
2022-10-31T15:57:26.157Z,42.5293
2022-10-31T15:59:26.147Z,42.49414
2022-10-31T16:01:26.393Z,42.86914
2022-10-31T16:04:16.030Z,43.43359
2022-10-31T16:06:16.082Z,43.61426
2022-10-31T16:08:16.029Z,43.37891
2022-10-31T16:10:16.054Z,43.70508
2022-10-31T16:12:22.571Z,43.92969
2022-10-31T16:14:16.053Z,44.19043
2022-10-31T16:16:41.221Z,44.16602
2022-10-31T16:19:47.072Z,44.31055
2022-10-31T16:21:47.099Z,44.16211
2022-10-31T16:23:47.082Z,44.49219
2022-10-31T16:25:47.136Z,44.71387
2022-10-31T16:27:54.702Z,44.80859
2022-10-31T16:29:47.117Z,44.65625
2022-10-31T16:31:47.102Z,45.05273
2022-10-31T16:34:27.387Z,45.09473
2022-10-31T16:36:36.091Z,45.21191
2022-10-31T16:38:25.869Z,45.02637
2022-10-31T16:40:25.860Z,45.18359
2022-10-31T16:42:26.043Z,45.42578
2022-10-31T16:44:25.896Z,45.75195
2022-10-31T16:46:25.905Z,45.72852
2022-10-31T16:50:01.495Z,45.94922
2022-10-31T16:52:01.244Z,45.92578
2022-10-31T16:54:01.194Z,45.80273
2022-10-31T16:56:01.176Z,45.78027
2022-10-31T16:58:01.929Z,45.88184
2022-10-31T17:00:01.170Z,45.79004
2022-10-31T17:02:01.464Z,45.87793
2022-10-31T17:04:38.388Z,45.5459
2022-10-31T17:06:38.363Z,45.96973
2022-10-31T17:08:38.560Z,46.0498
2022-10-31T17:10:38.532Z,46.29004
2022-10-31T17:12:38.479Z,46.32715
2022-10-31T17:14:38.365Z,46.45313
2022-10-31T17:16:38.504Z,46.27344
2022-10-31T17:18:38.462Z,46.2832
2022-10-31T17:20:08.732Z,46.24121
2022-10-31T17:22:08.744Z,46.58301
2022-10-31T17:24:08.853Z,46.69922
2022-10-31T17:26:09.338Z,47.0459
2022-10-31T17:28:08.869Z,46.88965
2022-10-31T17:30:08.749Z,47.30469
2022-10-31T17:32:08.955Z,47.04883
2022-10-31T17:35:33.678Z,47.46484
2022-10-31T17:37:33.550Z,47.24512
2022-10-31T17:39:33.588Z,47.59277
2022-10-31T17:41:33.633Z,47.55566
2022-10-31T17:43:33.654Z,47.54883
2022-10-31T17:45:33.614Z,47.7793
2022-10-31T17:47:33.552Z,47.81836
2022-10-31T17:50:45.341Z,48.37305
2022-10-31T17:52:45.192Z,48.03418
2022-10-31T17:54:45.332Z,48.14258
2022-10-31T17:56:45.378Z,48.28027
2022-10-31T17:58:45.282Z,48.39258
2022-10-31T18:00:50.527Z,49.05957
2022-10-31T18:02:45.378Z,49.53516
2022-10-31T18:05:20.215Z,49.33984
2022-10-31T18:07:20.206Z,49.2666
2022-10-31T18:09:20.135Z,49.83301
2022-10-31T18:11:20.161Z,49.33008
2022-10-31T18:13:20.385Z,49.66016
2022-10-31T18:15:20.152Z,49.76074
2022-10-31T18:17:20.602Z,49.61523
2022-10-31T18:19:20.168Z,49.73438
2022-10-31T18:21:00.626Z,49.5791
2022-10-31T18:23:00.706Z,49.9668
2022-10-31T18:25:02.702Z,50.68262
2022-10-31T18:27:01.007Z,50.76465
2022-10-31T18:29:00.774Z,50.82129
2022-10-31T18:31:00.567Z,51.59766
2022-10-31T18:33:00.773Z,51.40723
2022-10-31T18:36:32.331Z,51.63184
2022-10-31T18:38:32.419Z,51.6084
2022-10-31T18:40:32.410Z,51.44043
2022-10-31T18:42:32.318Z,51.16113
2022-10-31T18:44:32.335Z,51.43164
2022-10-31T18:46:32.342Z,51.40332
2022-10-31T18:48:32.313Z,51.28613
2022-10-31T18:50:58.539Z,51.33496
2022-10-31T18:52:58.679Z,51.39844
2022-10-31T18:54:58.263Z,51.46289
2022-10-31T18:56:58.252Z,51.26465
2022-10-31T18:58:58.280Z,51.73633
2022-10-31T19:00:58.294Z,52.31836
2022-10-31T19:02:58.584Z,52.00195
2022-10-31T19:06:27.106Z,52.81152
2022-10-31T19:10:26.950Z,52.54785
2022-10-31T19:12:27.388Z,52.41797
2022-10-31T19:14:27.214Z,53.00488
2022-10-31T19:16:27.078Z,53.16699
2022-10-31T19:18:27.430Z,53.18359
2022-10-31T19:21:47.510Z,53.05957
2022-10-31T19:23:47.739Z,53.06738
2022-10-31T19:25:47.668Z,53.22363
2022-10-31T19:27:47.361Z,53.56348
2022-10-31T19:29:47.484Z,53.4502
2022-10-31T19:31:47.481Z,53.89355
2022-10-31T19:33:47.534Z,53.80859
2022-10-31T19:36:51.742Z,53.79395
2022-10-31T19:38:51.656Z,53.38379
2022-10-31T19:40:51.782Z,53.29395
2022-10-31T19:42:51.663Z,53.46191
2022-10-31T19:44:51.618Z,53.5459
2022-10-31T19:46:54.428Z,53.98047
2022-10-31T19:48:51.633Z,53.81348
2022-10-31T19:52:12.620Z,53.50098
2022-10-31T19:54:12.700Z,53.87793
2022-10-31T19:56:12.752Z,54.63574
2022-10-31T19:58:13.121Z,54.70898
2022-10-31T20:00:12.640Z,54.91406
2022-10-31T20:02:12.669Z,55.36133
2022-10-31T20:04:12.660Z,54.96191
2022-10-31T20:07:05.573Z,54.3125
2022-10-31T20:09:05.505Z,54.09668
2022-10-31T20:11:05.464Z,54.30371
2022-10-31T20:13:05.542Z,54.39648
2022-10-31T20:15:05.408Z,54.29004
2022-10-31T20:17:05.796Z,54.75977
2022-10-31T20:19:05.710Z,54.84863
2022-10-31T20:21:54.879Z,54.77441
2022-10-31T20:23:54.694Z,54.75098
2022-10-31T20:25:54.691Z,54.84375
2022-10-31T20:27:55.198Z,55.72168
2022-10-31T20:29:54.894Z,56.12891
2022-10-31T20:31:54.964Z,55.68652
2022-10-31T20:33:54.722Z,55.13281
2022-10-31T20:35:54.803Z,55.2959
2022-10-31T20:36:59.269Z,55.83203
2022-10-31T20:38:59.140Z,56.21875
2022-10-31T20:40:59.163Z,55.76855
2022-10-31T20:42:59.358Z,55.76563
2022-10-31T20:44:59.295Z,56.0459
2022-10-31T20:46:59.326Z,55.82031
2022-10-31T20:48:59.350Z,56.4668
2022-10-31T20:50:59.196Z,56.40527
2022-10-31T20:52:42.760Z,56.13574
2022-10-31T20:54:42.942Z,56.0625
2022-10-31T20:56:43.147Z,55.80957
2022-10-31T20:58:42.796Z,56.20117
2022-10-31T21:00:42.878Z,56.5918
2022-10-31T21:02:42.902Z,57.13379
2022-10-31T21:04:42.887Z,56.87695
2022-10-31T21:07:46.423Z,56.67383
2022-10-31T21:09:46.405Z,57.06641
2022-10-31T21:11:46.288Z,56.65723
2022-10-31T21:13:46.309Z,57.49219
2022-10-31T21:15:46.483Z,57.85059
2022-10-31T21:17:46.675Z,57.5127
2022-10-31T21:19:46.225Z,56.74219
2022-10-31T21:23:04.493Z,57.59863
2022-10-31T21:25:03.620Z,57.66602
2022-10-31T21:27:07.286Z,57.6582
2022-10-31T21:29:03.590Z,57.09375
2022-10-31T21:31:04.114Z,57.17383
2022-10-31T21:33:03.645Z,57.42383
2022-10-31T21:35:03.619Z,57.1875
2022-10-31T21:38:10.539Z,57.14941
2022-10-31T21:40:10.320Z,56.88574
2022-10-31T21:42:10.549Z,56.73047
2022-10-31T21:44:10.641Z,57.01074
2022-10-31T21:46:10.227Z,57.35352
2022-10-31T21:48:10.257Z,57.57715
2022-10-31T21:50:10.153Z,58.08789
2022-10-31T21:53:44.189Z,57.64258
2022-10-31T21:55:44.152Z,57.21973
2022-10-31T21:57:44.150Z,57.0918
2022-10-31T21:59:44.152Z,56.66895
2022-10-31T22:01:44.449Z,56.6416
2022-10-31T22:03:44.216Z,57.01758
2022-10-31T22:05:44.133Z,57.2207
2022-10-31T22:08:48.425Z,57.30664
2022-10-31T22:10:48.388Z,57.44629
2022-10-31T22:12:48.364Z,57.59473
2022-10-31T22:14:48.399Z,57.60547
2022-10-31T22:16:48.438Z,57.58105
2022-10-31T22:18:48.418Z,57.65137
2022-10-31T22:20:48.437Z,58.08398
2022-10-31T22:23:57.933Z,58.26367
2022-10-31T22:25:57.015Z,58.14648
2022-10-31T22:27:56.990Z,58.3584
2022-10-31T22:29:57.074Z,58.3584
2022-10-31T22:32:01.910Z,58.29297
2022-10-31T22:33:57.024Z,58.13672
2022-10-31T22:35:56.964Z,58.37793
2022-10-31T22:39:02.214Z,58.41406
2022-10-31T22:41:02.196Z,58.72559
2022-10-31T22:43:03.070Z,58.69043
2022-10-31T22:45:02.206Z,58.54688
2022-10-31T22:47:02.226Z,58.42676
2022-10-31T22:51:02.236Z,58.58105
2022-10-31T22:54:13.225Z,58.70801
2022-10-31T22:56:13.396Z,58.74414
2022-10-31T22:58:13.225Z,58.7002
2022-10-31T23:00:13.438Z,58.73926
2022-10-31T23:02:13.736Z,59.04297
2022-10-31T23:04:13.536Z,59.33203
2022-10-31T23:06:13.554Z,59.38379
2022-10-31T23:09:27.333Z,59.43066
2022-10-31T23:11:27.085Z,59.75293
2022-10-31T23:13:27.098Z,59.61133
2022-10-31T23:15:27.140Z,59.77539
2022-10-31T23:17:27.137Z,59.85645
2022-10-31T23:19:27.187Z,59.7334
2022-10-31T23:21:27.089Z,59.6377
2022-10-31T23:24:36.160Z,59.66992
2022-10-31T23:26:36.126Z,59.48828
2022-10-31T23:28:36.154Z,59.89844
2022-10-31T23:30:36.114Z,59.80664
2022-10-31T23:32:36.184Z,59.77637
2022-10-31T23:34:36.156Z,59.88184
2022-10-31T23:36:36.176Z,59.85645
2022-10-31T23:39:56.375Z,60.02441
2022-10-31T23:41:56.406Z,60.07617
2022-10-31T23:43:56.364Z,60.16016
2022-10-31T23:45:56.374Z,60.11621
2022-10-31T23:47:56.437Z,60.22168
2022-10-31T23:49:56.373Z,60.00879
2022-10-31T23:51:56.441Z,61.0498
2022-10-31T23:54:41.196Z,61.71289
2022-10-31T23:56:41.230Z,61.68555
2022-10-31T23:58:41.231Z,62.10742
